sensor_id;sensor_type;location;lat;lon;timestamp;temperature;humidity
19166;DHT22;9715;48.816;10.520;2022-07-29T00:00:21;20.90;99.90
19166;DHT22;9715;48.816;10.520;2022-07-29T00:02:50;20.90;99.90
19166;DHT22;9715;48.816;10.520;2022-07-29T00:05:19;20.80;99.90
19166;DHT22;9715;48.816;10.520;2022-07-29T00:07:47;20.80;99.90
19166;DHT22;9715;48.816;10.520;2022-07-29T00:10:15;20.80;99.90
19166;DHT22;9715;48.816;10.520;2022-07-29T00:12:43;20.80;99.90
19166;DHT22;9715;48.816;10.520;2022-07-29T00:15:11;20.90;99.90
19166;DHT22;9715;48.816;10.520;2022-07-29T00:17:39;20.90;99.90
19166;DHT22;9715;48.816;10.520;2022-07-29T00:20:09;20.90;99.90
19166;DHT22;9715;48.816;10.520;2022-07-29T00:22:38;20.80;99.90
19166;DHT22;9715;48.816;10.520;2022-07-29T00:25:06;20.90;99.90
19166;DHT22;9715;48.816;10.520;2022-07-29T00:27:36;20.90;99.90
19166;DHT22;9715;48.816;10.520;2022-07-29T00:30:05;20.90;99.90
19166;DHT22;9715;48.816;10.520;2022-07-29T00:32:34;21.00;99.90
19166;DHT22;9715;48.816;10.520;2022-07-29T00:35:02;21.00;99.90
19166;DHT22;9715;48.816;10.520;2022-07-29T00:37:49;21.00;99.90
19166;DHT22;9715;48.816;10.520;2022-07-29T00:40:17;21.00;99.90
19166;DHT22;9715;48.816;10.520;2022-07-29T00:42:50;21.00;99.90
19166;DHT22;9715;48.816;10.520;2022-07-29T00:45:18;21.10;99.90
19166;DHT22;9715;48.816;10.520;2022-07-29T00:47:47;21.00;99.90
19166;DHT22;9715;48.816;10.520;2022-07-29T00:50:15;21.00;99.90
19166;DHT22;9715;48.816;10.520;2022-07-29T00:52:43;21.00;99.90
19166;DHT22;9715;48.816;10.520;2022-07-29T00:55:14;20.90;99.90
19166;DHT22;9715;48.816;10.520;2022-07-29T00:57:43;21.00;99.90
19166;DHT22;9715;48.816;10.520;2022-07-29T01:00:15;21.00;99.90
19166;DHT22;9715;48.816;10.520;2022-07-29T01:02:44;21.00;99.90
19166;DHT22;9715;48.816;10.520;2022-07-29T01:05:16;21.00;99.90
19166;DHT22;9715;48.816;10.520;2022-07-29T01:07:46;21.10;99.90
19166;DHT22;9715;48.816;10.520;2022-07-29T01:10:18;21.10;99.90
19166;DHT22;9715;48.816;10.520;2022-07-29T01:12:49;21.00;99.90
19166;DHT22;9715;48.816;10.520;2022-07-29T01:15:17;21.10;99.90
19166;DHT22;9715;48.816;10.520;2022-07-29T01:17:50;21.00;99.90
19166;DHT22;9715;48.816;10.520;2022-07-29T01:20:25;21.00;99.90
19166;DHT22;9715;48.816;10.520;2022-07-29T01:23:34;20.80;99.90
19166;DHT22;9715;48.816;10.520;2022-07-29T01:26:26;20.70;99.90
19166;DHT22;9715;48.816;10.520;2022-07-29T01:29:02;20.60;99.90
19166;DHT22;9715;48.816;10.520;2022-07-29T01:31:39;20.70;99.90
19166;DHT22;9715;48.816;10.520;2022-07-29T01:34:29;20.60;99.90
19166;DHT22;9715;48.816;10.520;2022-07-29T01:37:06;20.40;99.90
19166;DHT22;9715;48.816;10.520;2022-07-29T01:39:37;20.30;99.90
19166;DHT22;9715;48.816;10.520;2022-07-29T01:42:10;20.20;99.90
19166;DHT22;9715;48.816;10.520;2022-07-29T01:44:46;20.10;99.90
19166;DHT22;9715;48.816;10.520;2022-07-29T01:47:20;20.00;99.90
19166;DHT22;9715;48.816;10.520;2022-07-29T01:49:51;19.90;99.90
19166;DHT22;9715;48.816;10.520;2022-07-29T01:52:25;19.90;99.90
19166;DHT22;9715;48.816;10.520;2022-07-29T01:54:57;19.80;99.90
19166;DHT22;9715;48.816;10.520;2022-07-29T01:57:29;19.80;99.90
19166;DHT22;9715;48.816;10.520;2022-07-29T02:00:02;19.80;99.90
19166;DHT22;9715;48.816;10.520;2022-07-29T02:02:32;19.70;99.90
19166;DHT22;9715;48.816;10.520;2022-07-29T02:05:03;19.60;99.90
19166;DHT22;9715;48.816;10.520;2022-07-29T02:07:33;19.50;99.90
19166;DHT22;9715;48.816;10.520;2022-07-29T02:10:03;19.40;99.90
19166;DHT22;9715;48.816;10.520;2022-07-29T02:12:32;19.30;99.90
19166;DHT22;9715;48.816;10.520;2022-07-29T02:15:04;19.30;99.90
19166;DHT22;9715;48.816;10.520;2022-07-29T02:17:49;19.20;99.90
19166;DHT22;9715;48.816;10.520;2022-07-29T02:20:17;19.20;99.90
19166;DHT22;9715;48.816;10.520;2022-07-29T02:22:46;19.20;99.90
19166;DHT22;9715;48.816;10.520;2022-07-29T02:25:17;19.10;99.90
19166;DHT22;9715;48.816;10.520;2022-07-29T02:27:47;19.10;99.90
19166;DHT22;9715;48.816;10.520;2022-07-29T02:30:17;19.10;99.90
19166;DHT22;9715;48.816;10.520;2022-07-29T02:32:46;19.20;99.90
19166;DHT22;9715;48.816;10.520;2022-07-29T02:35:16;19.20;99.90
19166;DHT22;9715;48.816;10.520;2022-07-29T02:37:45;19.30;99.90
19166;DHT22;9715;48.816;10.520;2022-07-29T02:40:37;19.30;99.90
19166;DHT22;9715;48.816;10.520;2022-07-29T02:43:06;19.30;99.90
19166;DHT22;9715;48.816;10.520;2022-07-29T02:45:36;19.20;99.90
19166;DHT22;9715;48.816;10.520;2022-07-29T02:48:08;19.20;99.90
19166;DHT22;9715;48.816;10.520;2022-07-29T02:50:42;19.20;99.90
19166;DHT22;9715;48.816;10.520;2022-07-29T02:53:16;19.20;99.90
19166;DHT22;9715;48.816;10.520;2022-07-29T02:55:48;19.20;99.90
19166;DHT22;9715;48.816;10.520;2022-07-29T02:58:23;19.20;99.90
19166;DHT22;9715;48.816;10.520;2022-07-29T03:00:58;19.20;99.90
19166;DHT22;9715;48.816;10.520;2022-07-29T03:03:29;19.20;99.90
19166;DHT22;9715;48.816;10.520;2022-07-29T03:06:00;19.20;99.90
19166;DHT22;9715;48.816;10.520;2022-07-29T03:08:29;19.20;99.90
19166;DHT22;9715;48.816;10.520;2022-07-29T03:10:58;19.20;99.90
19166;DHT22;9715;48.816;10.520;2022-07-29T03:13:27;19.30;99.90
19166;DHT22;9715;48.816;10.520;2022-07-29T03:15:58;19.30;99.90
19166;DHT22;9715;48.816;10.520;2022-07-29T03:18:27;19.30;99.90
19166;DHT22;9715;48.816;10.520;2022-07-29T03:20:55;19.30;99.90
19166;DHT22;9715;48.816;10.520;2022-07-29T03:23:24;19.30;99.90
19166;DHT22;9715;48.816;10.520;2022-07-29T03:26:00;19.30;99.90
19166;DHT22;9715;48.816;10.520;2022-07-29T03:28:29;19.30;99.90
19166;DHT22;9715;48.816;10.520;2022-07-29T03:30:59;19.30;99.90
19166;DHT22;9715;48.816;10.520;2022-07-29T03:33:27;19.20;99.90
19166;DHT22;9715;48.816;10.520;2022-07-29T03:35:57;19.20;99.90
19166;DHT22;9715;48.816;10.520;2022-07-29T03:38:27;19.10;99.90
19166;DHT22;9715;48.816;10.520;2022-07-29T03:41:00;19.20;99.90
19166;DHT22;9715;48.816;10.520;2022-07-29T03:43:31;19.30;99.90
19166;DHT22;9715;48.816;10.520;2022-07-29T03:46:02;19.30;99.90
19166;DHT22;9715;48.816;10.520;2022-07-29T03:48:36;19.20;99.90
19166;DHT22;9715;48.816;10.520;2022-07-29T03:51:05;19.20;99.90
19166;DHT22;9715;48.816;10.520;2022-07-29T03:53:33;19.20;99.90
19166;DHT22;9715;48.816;10.520;2022-07-29T03:56:03;19.20;99.90
19166;DHT22;9715;48.816;10.520;2022-07-29T03:58:33;19.30;99.90
19166;DHT22;9715;48.816;10.520;2022-07-29T04:01:03;19.30;99.90
19166;DHT22;9715;48.816;10.520;2022-07-29T04:03:31;19.40;99.90
19166;DHT22;9715;48.816;10.520;2022-07-29T04:06:01;19.40;99.90
19166;DHT22;9715;48.816;10.520;2022-07-29T04:08:30;19.30;99.90
19166;DHT22;9715;48.816;10.520;2022-07-29T04:10:58;19.40;99.90
19166;DHT22;9715;48.816;10.520;2022-07-29T04:13:26;19.40;99.90
19166;DHT22;9715;48.816;10.520;2022-07-29T04:15:54;19.40;99.90
19166;DHT22;9715;48.816;10.520;2022-07-29T04:18:23;19.30;99.90
19166;DHT22;9715;48.816;10.520;2022-07-29T04:20:51;19.30;99.90
19166;DHT22;9715;48.816;10.520;2022-07-29T04:23:19;19.20;99.90
19166;DHT22;9715;48.816;10.520;2022-07-29T04:25:47;19.20;99.90
19166;DHT22;9715;48.816;10.520;2022-07-29T04:28:15;19.20;99.90
19166;DHT22;9715;48.816;10.520;2022-07-29T04:30:43;19.30;99.90
19166;DHT22;9715;48.816;10.520;2022-07-29T04:33:12;19.30;99.90
19166;DHT22;9715;48.816;10.520;2022-07-29T04:35:41;19.40;99.90
19166;DHT22;9715;48.816;10.520;2022-07-29T04:38:18;19.50;99.90
19166;DHT22;9715;48.816;10.520;2022-07-29T04:40:46;19.50;99.90
19166;DHT22;9715;48.816;10.520;2022-07-29T04:43:15;19.50;99.90
19166;DHT22;9715;48.816;10.520;2022-07-29T04:45:49;19.60;99.90
19166;DHT22;9715;48.816;10.520;2022-07-29T04:48:17;19.60;99.90
19166;DHT22;9715;48.816;10.520;2022-07-29T04:50:46;19.70;99.90
19166;DHT22;9715;48.816;10.520;2022-07-29T04:53:14;19.70;99.90
19166;DHT22;9715;48.816;10.520;2022-07-29T04:55:42;19.80;99.90
19166;DHT22;9715;48.816;10.520;2022-07-29T04:58:11;19.90;99.90
19166;DHT22;9715;48.816;10.520;2022-07-29T05:00:40;19.90;99.90
19166;DHT22;9715;48.816;10.520;2022-07-29T05:03:08;20.00;99.90
19166;DHT22;9715;48.816;10.520;2022-07-29T05:05:36;20.10;99.90
19166;DHT22;9715;48.816;10.520;2022-07-29T05:08:05;20.10;99.90
19166;DHT22;9715;48.816;10.520;2022-07-29T05:10:33;20.10;99.90
19166;DHT22;9715;48.816;10.520;2022-07-29T05:13:05;20.10;99.90
19166;DHT22;9715;48.816;10.520;2022-07-29T05:15:34;20.20;99.90
19166;DHT22;9715;48.816;10.520;2022-07-29T05:18:02;20.20;99.90
19166;DHT22;9715;48.816;10.520;2022-07-29T05:20:30;20.20;99.90
19166;DHT22;9715;48.816;10.520;2022-07-29T05:23:00;20.30;99.90
19166;DHT22;9715;48.816;10.520;2022-07-29T05:25:30;20.30;99.90
19166;DHT22;9715;48.816;10.520;2022-07-29T05:28:10;20.30;99.90
19166;DHT22;9715;48.816;10.520;2022-07-29T05:30:38;20.30;99.90
19166;DHT22;9715;48.816;10.520;2022-07-29T05:33:06;20.40;99.90
19166;DHT22;9715;48.816;10.520;2022-07-29T05:35:54;20.40;99.90
19166;DHT22;9715;48.816;10.520;2022-07-29T05:38:26;20.40;99.90
19166;DHT22;9715;48.816;10.520;2022-07-29T05:40:57;20.40;99.90
19166;DHT22;9715;48.816;10.520;2022-07-29T05:43:26;20.50;99.90
19166;DHT22;9715;48.816;10.520;2022-07-29T05:45:54;20.50;99.90
19166;DHT22;9715;48.816;10.520;2022-07-29T05:48:23;20.50;99.90
19166;DHT22;9715;48.816;10.520;2022-07-29T05:50:51;20.60;99.90
19166;DHT22;9715;48.816;10.520;2022-07-29T05:53:19;20.60;99.90
19166;DHT22;9715;48.816;10.520;2022-07-29T05:55:47;20.60;99.90
19166;DHT22;9715;48.816;10.520;2022-07-29T05:58:17;20.60;99.90
19166;DHT22;9715;48.816;10.520;2022-07-29T06:00:45;20.70;99.90
19166;DHT22;9715;48.816;10.520;2022-07-29T06:03:13;20.70;99.90
19166;DHT22;9715;48.816;10.520;2022-07-29T06:05:41;20.80;99.90
19166;DHT22;9715;48.816;10.520;2022-07-29T06:08:09;20.80;99.90
19166;DHT22;9715;48.816;10.520;2022-07-29T06:10:37;20.90;99.90
19166;DHT22;9715;48.816;10.520;2022-07-29T06:13:05;20.90;99.90
19166;DHT22;9715;48.816;10.520;2022-07-29T06:15:35;21.00;99.90
19166;DHT22;9715;48.816;10.520;2022-07-29T06:18:03;21.00;99.90
19166;DHT22;9715;48.816;10.520;2022-07-29T06:20:34;21.00;99.90
19166;DHT22;9715;48.816;10.520;2022-07-29T06:23:03;21.10;99.90
19166;DHT22;9715;48.816;10.520;2022-07-29T06:25:31;21.20;99.90
19166;DHT22;9715;48.816;10.520;2022-07-29T06:28:01;21.10;99.90
19166;DHT22;9715;48.816;10.520;2022-07-29T06:30:29;21.10;99.90
19166;DHT22;9715;48.816;10.520;2022-07-29T06:32:59;21.10;99.90
19166;DHT22;9715;48.816;10.520;2022-07-29T06:35:28;21.20;99.90
19166;DHT22;9715;48.816;10.520;2022-07-29T06:38:08;21.20;99.90
19166;DHT22;9715;48.816;10.520;2022-07-29T06:40:56;21.30;99.90
19166;DHT22;9715;48.816;10.520;2022-07-29T06:43:35;21.40;99.90
19166;DHT22;9715;48.816;10.520;2022-07-29T06:46:17;21.50;99.90
19166;DHT22;9715;48.816;10.520;2022-07-29T06:48:48;21.60;99.90
19166;DHT22;9715;48.816;10.520;2022-07-29T06:51:16;21.60;99.90
19166;DHT22;9715;48.816;10.520;2022-07-29T06:53:49;21.70;99.90
19166;DHT22;9715;48.816;10.520;2022-07-29T06:56:29;21.70;99.90
19166;DHT22;9715;48.816;10.520;2022-07-29T06:59:04;21.70;99.90
19166;DHT22;9715;48.816;10.520;2022-07-29T07:01:32;21.80;99.90
19166;DHT22;9715;48.816;10.520;2022-07-29T07:04:01;21.80;99.90
19166;DHT22;9715;48.816;10.520;2022-07-29T07:06:29;21.90;99.90
19166;DHT22;9715;48.816;10.520;2022-07-29T07:08:57;22.00;99.90
19166;DHT22;9715;48.816;10.520;2022-07-29T07:11:25;22.10;99.90
19166;DHT22;9715;48.816;10.520;2022-07-29T07:13:53;22.10;99.90
19166;DHT22;9715;48.816;10.520;2022-07-29T07:16:28;22.20;99.90
19166;DHT22;9715;48.816;10.520;2022-07-29T07:18:56;22.20;99.90
19166;DHT22;9715;48.816;10.520;2022-07-29T07:21:26;22.30;99.90
19166;DHT22;9715;48.816;10.520;2022-07-29T07:23:56;22.30;99.90
19166;DHT22;9715;48.816;10.520;2022-07-29T07:26:24;22.30;99.90
19166;DHT22;9715;48.816;10.520;2022-07-29T07:28:53;22.40;99.90
19166;DHT22;9715;48.816;10.520;2022-07-29T07:31:21;22.40;99.90
19166;DHT22;9715;48.816;10.520;2022-07-29T07:33:49;22.50;99.90
19166;DHT22;9715;48.816;10.520;2022-07-29T07:36:18;22.50;99.90
19166;DHT22;9715;48.816;10.520;2022-07-29T07:38:47;22.60;99.90
19166;DHT22;9715;48.816;10.520;2022-07-29T07:41:15;22.60;99.90
19166;DHT22;9715;48.816;10.520;2022-07-29T07:43:43;22.60;99.90
19166;DHT22;9715;48.816;10.520;2022-07-29T07:46:11;22.50;99.90
19166;DHT22;9715;48.816;10.520;2022-07-29T07:48:39;22.60;99.90
19166;DHT22;9715;48.816;10.520;2022-07-29T07:51:08;22.50;99.90
19166;DHT22;9715;48.816;10.520;2022-07-29T07:53:36;22.50;99.90
19166;DHT22;9715;48.816;10.520;2022-07-29T07:56:05;22.50;99.90
19166;DHT22;9715;48.816;10.520;2022-07-29T07:58:37;22.50;99.90
19166;DHT22;9715;48.816;10.520;2022-07-29T08:01:05;22.50;99.90
19166;DHT22;9715;48.816;10.520;2022-07-29T08:03:33;22.50;99.90
19166;DHT22;9715;48.816;10.520;2022-07-29T08:06:02;22.50;99.90
19166;DHT22;9715;48.816;10.520;2022-07-29T08:08:30;22.40;99.90
19166;DHT22;9715;48.816;10.520;2022-07-29T08:10:58;22.30;99.90
19166;DHT22;9715;48.816;10.520;2022-07-29T08:13:36;22.30;99.90
19166;DHT22;9715;48.816;10.520;2022-07-29T08:16:05;22.30;99.90
19166;DHT22;9715;48.816;10.520;2022-07-29T08:18:41;22.30;99.90
19166;DHT22;9715;48.816;10.520;2022-07-29T08:21:09;22.30;99.90
19166;DHT22;9715;48.816;10.520;2022-07-29T08:23:41;22.30;99.90
19166;DHT22;9715;48.816;10.520;2022-07-29T08:26:25;22.40;99.90
19166;DHT22;9715;48.816;10.520;2022-07-29T08:28:55;22.50;99.90
19166;DHT22;9715;48.816;10.520;2022-07-29T08:31:23;22.50;99.90
19166;DHT22;9715;48.816;10.520;2022-07-29T08:33:51;22.50;99.90
19166;DHT22;9715;48.816;10.520;2022-07-29T08:36:20;22.60;99.90
19166;DHT22;9715;48.816;10.520;2022-07-29T08:38:48;22.60;99.90
19166;DHT22;9715;48.816;10.520;2022-07-29T08:41:18;22.70;99.90
19166;DHT22;9715;48.816;10.520;2022-07-29T08:43:46;22.80;99.90
19166;DHT22;9715;48.816;10.520;2022-07-29T08:46:16;22.90;99.90
19166;DHT22;9715;48.816;10.520;2022-07-29T08:48:45;23.00;99.90
19166;DHT22;9715;48.816;10.520;2022-07-29T08:51:14;23.10;99.90
19166;DHT22;9715;48.816;10.520;2022-07-29T08:53:43;23.20;99.90
19166;DHT22;9715;48.816;10.520;2022-07-29T08:56:13;23.40;99.90
19166;DHT22;9715;48.816;10.520;2022-07-29T08:58:41;23.50;99.90
19166;DHT22;9715;48.816;10.520;2022-07-29T09:01:23;23.70;99.90
19166;DHT22;9715;48.816;10.520;2022-07-29T09:04:04;23.80;99.90
19166;DHT22;9715;48.816;10.520;2022-07-29T09:06:36;23.80;99.90
19166;DHT22;9715;48.816;10.520;2022-07-29T09:09:05;23.90;99.90
19166;DHT22;9715;48.816;10.520;2022-07-29T09:11:35;24.00;99.90
19166;DHT22;9715;48.816;10.520;2022-07-29T09:14:03;24.00;99.90
19166;DHT22;9715;48.816;10.520;2022-07-29T09:16:55;24.10;99.90
19166;DHT22;9715;48.816;10.520;2022-07-29T09:19:26;24.10;99.90
19166;DHT22;9715;48.816;10.520;2022-07-29T09:21:56;24.30;99.90
19166;DHT22;9715;48.816;10.520;2022-07-29T09:24:38;24.40;99.90
19166;DHT22;9715;48.816;10.520;2022-07-29T09:27:18;24.50;99.90
19166;DHT22;9715;48.816;10.520;2022-07-29T09:29:47;24.60;99.90
19166;DHT22;9715;48.816;10.520;2022-07-29T09:32:16;24.70;99.90
19166;DHT22;9715;48.816;10.520;2022-07-29T09:34:44;24.90;99.90
19166;DHT22;9715;48.816;10.520;2022-07-29T09:37:25;25.00;99.90
19166;DHT22;9715;48.816;10.520;2022-07-29T09:39:54;25.10;99.90
19166;DHT22;9715;48.816;10.520;2022-07-29T09:42:28;25.20;99.90
19166;DHT22;9715;48.816;10.520;2022-07-29T09:44:56;25.30;99.90
19166;DHT22;9715;48.816;10.520;2022-07-29T09:47:40;25.40;99.90
19166;DHT22;9715;48.816;10.520;2022-07-29T09:50:08;25.60;99.90
19166;DHT22;9715;48.816;10.520;2022-07-29T09:52:45;25.70;99.90
19166;DHT22;9715;48.816;10.520;2022-07-29T09:55:14;25.90;99.90
19166;DHT22;9715;48.816;10.520;2022-07-29T09:57:46;26.00;99.90
19166;DHT22;9715;48.816;10.520;2022-07-29T10:00:17;26.00;99.90
19166;DHT22;9715;48.816;10.520;2022-07-29T10:02:47;26.00;99.90
19166;DHT22;9715;48.816;10.520;2022-07-29T10:05:20;26.00;99.90
19166;DHT22;9715;48.816;10.520;2022-07-29T10:07:50;26.10;99.90
19166;DHT22;9715;48.816;10.520;2022-07-29T10:10:24;26.10;99.90
19166;DHT22;9715;48.816;10.520;2022-07-29T10:12:54;26.20;99.90
19166;DHT22;9715;48.816;10.520;2022-07-29T10:15:29;26.30;99.90
19166;DHT22;9715;48.816;10.520;2022-07-29T10:17:59;26.30;99.90
19166;DHT22;9715;48.816;10.520;2022-07-29T10:20:28;26.30;99.90
19166;DHT22;9715;48.816;10.520;2022-07-29T10:22:56;26.40;99.90
19166;DHT22;9715;48.816;10.520;2022-07-29T10:25:27;26.40;99.90
19166;DHT22;9715;48.816;10.520;2022-07-29T10:27:55;26.50;99.90
19166;DHT22;9715;48.816;10.520;2022-07-29T10:30:25;26.50;99.90
19166;DHT22;9715;48.816;10.520;2022-07-29T10:33:12;26.60;99.90
19166;DHT22;9715;48.816;10.520;2022-07-29T10:36:11;26.70;99.90
19166;DHT22;9715;48.816;10.520;2022-07-29T10:38:48;26.90;99.90
19166;DHT22;9715;48.816;10.520;2022-07-29T10:41:36;27.10;99.90
19166;DHT22;9715;48.816;10.520;2022-07-29T10:44:14;27.20;99.90
19166;DHT22;9715;48.816;10.520;2022-07-29T10:46:48;27.30;99.90
19166;DHT22;9715;48.816;10.520;2022-07-29T10:49:19;27.50;99.90
19166;DHT22;9715;48.816;10.520;2022-07-29T10:54:40;27.50;99.90
19166;DHT22;9715;48.816;10.520;2022-07-29T10:57:14;27.60;99.90
19166;DHT22;9715;48.816;10.520;2022-07-29T10:59:43;27.70;99.90
19166;DHT22;9715;48.816;10.520;2022-07-29T11:02:43;27.80;99.90
19166;DHT22;9715;48.816;10.520;2022-07-29T11:05:15;27.80;99.90
19166;DHT22;9715;48.816;10.520;2022-07-29T11:08:18;27.80;99.90
19166;DHT22;9715;48.816;10.520;2022-07-29T11:14:03;28.00;99.90
19166;DHT22;9715;48.816;10.520;2022-07-29T11:17:02;28.00;99.90
19166;DHT22;9715;48.816;10.520;2022-07-29T11:19:32;28.00;99.90
19166;DHT22;9715;48.816;10.520;2022-07-29T11:22:03;28.00;99.90
19166;DHT22;9715;48.816;10.520;2022-07-29T11:24:35;27.90;99.90
19166;DHT22;9715;48.816;10.520;2022-07-29T11:27:17;27.90;99.90
19166;DHT22;9715;48.816;10.520;2022-07-29T11:29:52;27.80;99.90
19166;DHT22;9715;48.816;10.520;2022-07-29T11:32:22;27.60;99.90
19166;DHT22;9715;48.816;10.520;2022-07-29T11:35:11;27.50;99.90
19166;DHT22;9715;48.816;10.520;2022-07-29T11:37:46;27.30;99.90
19166;DHT22;9715;48.816;10.520;2022-07-29T11:40:21;27.10;99.90
19166;DHT22;9715;48.816;10.520;2022-07-29T11:42:49;27.00;99.90
19166;DHT22;9715;48.816;10.520;2022-07-29T11:45:25;26.80;99.90
19166;DHT22;9715;48.816;10.520;2022-07-29T11:48:16;26.60;99.90
19166;DHT22;9715;48.816;10.520;2022-07-29T11:50:58;26.40;99.90
19166;DHT22;9715;48.816;10.520;2022-07-29T11:53:30;26.30;99.90
19166;DHT22;9715;48.816;10.520;2022-07-29T11:56:00;26.20;99.90
19166;DHT22;9715;48.816;10.520;2022-07-29T11:58:29;26.10;99.90
19166;DHT22;9715;48.816;10.520;2022-07-29T12:00:59;25.90;99.90
19166;DHT22;9715;48.816;10.520;2022-07-29T12:03:31;25.70;99.90
19166;DHT22;9715;48.816;10.520;2022-07-29T12:06:03;25.60;99.90
19166;DHT22;9715;48.816;10.520;2022-07-29T12:08:40;25.30;99.90
19166;DHT22;9715;48.816;10.520;2022-07-29T12:11:15;25.10;99.90
19166;DHT22;9715;48.816;10.520;2022-07-29T12:13:47;24.90;99.90
19166;DHT22;9715;48.816;10.520;2022-07-29T12:16:15;24.80;99.90
19166;DHT22;9715;48.816;10.520;2022-07-29T12:18:57;24.50;99.90
19166;DHT22;9715;48.816;10.520;2022-07-29T12:21:28;24.20;99.90
19166;DHT22;9715;48.816;10.520;2022-07-29T12:23:58;23.80;99.90
19166;DHT22;9715;48.816;10.520;2022-07-29T12:26:35;23.60;99.90
19166;DHT22;9715;48.816;10.520;2022-07-29T12:29:03;23.40;99.90
19166;DHT22;9715;48.816;10.520;2022-07-29T12:31:37;23.20;99.90
19166;DHT22;9715;48.816;10.520;2022-07-29T12:34:11;23.10;99.90
19166;DHT22;9715;48.816;10.520;2022-07-29T12:36:40;23.10;99.90
19166;DHT22;9715;48.816;10.520;2022-07-29T12:39:10;23.10;99.90
19166;DHT22;9715;48.816;10.520;2022-07-29T12:41:39;23.00;99.90
19166;DHT22;9715;48.816;10.520;2022-07-29T12:44:07;23.10;99.90
19166;DHT22;9715;48.816;10.520;2022-07-29T12:46:35;23.10;99.90
19166;DHT22;9715;48.816;10.520;2022-07-29T12:49:05;23.10;99.90
19166;DHT22;9715;48.816;10.520;2022-07-29T12:51:34;23.20;99.90
19166;DHT22;9715;48.816;10.520;2022-07-29T12:54:05;23.20;99.90
19166;DHT22;9715;48.816;10.520;2022-07-29T12:56:35;23.10;99.90
19166;DHT22;9715;48.816;10.520;2022-07-29T12:59:13;23.10;99.90
19166;DHT22;9715;48.816;10.520;2022-07-29T13:01:41;23.00;99.90
19166;DHT22;9715;48.816;10.520;2022-07-29T13:04:09;22.90;99.90
19166;DHT22;9715;48.816;10.520;2022-07-29T13:06:39;22.80;99.90
19166;DHT22;9715;48.816;10.520;2022-07-29T13:09:13;22.60;99.90
19166;DHT22;9715;48.816;10.520;2022-07-29T13:11:44;22.50;99.90
19166;DHT22;9715;48.816;10.520;2022-07-29T13:14:29;22.30;99.90
19166;DHT22;9715;48.816;10.520;2022-07-29T13:17:03;22.20;99.90
19166;DHT22;9715;48.816;10.520;2022-07-29T13:19:37;22.10;99.90
19166;DHT22;9715;48.816;10.520;2022-07-29T13:22:07;21.90;99.90
19166;DHT22;9715;48.816;10.520;2022-07-29T13:24:47;21.80;99.90
19166;DHT22;9715;48.816;10.520;2022-07-29T13:27:17;21.70;99.90
19166;DHT22;9715;48.816;10.520;2022-07-29T13:29:46;21.60;99.90
19166;DHT22;9715;48.816;10.520;2022-07-29T13:32:15;21.50;99.90
19166;DHT22;9715;48.816;10.520;2022-07-29T13:34:43;21.40;99.90
19166;DHT22;9715;48.816;10.520;2022-07-29T13:37:11;21.30;99.90
19166;DHT22;9715;48.816;10.520;2022-07-29T13:39:39;21.40;99.90
19166;DHT22;9715;48.816;10.520;2022-07-29T13:42:19;21.40;99.90
19166;DHT22;9715;48.816;10.520;2022-07-29T13:44:47;21.40;99.90
19166;DHT22;9715;48.816;10.520;2022-07-29T13:47:17;21.50;99.90
19166;DHT22;9715;48.816;10.520;2022-07-29T13:49:45;21.60;99.90
19166;DHT22;9715;48.816;10.520;2022-07-29T13:52:13;21.60;99.90
19166;DHT22;9715;48.816;10.520;2022-07-29T13:54:42;21.70;99.90
19166;DHT22;9715;48.816;10.520;2022-07-29T13:57:10;21.70;99.90
19166;DHT22;9715;48.816;10.520;2022-07-29T13:59:40;21.70;99.90
19166;DHT22;9715;48.816;10.520;2022-07-29T14:02:10;21.70;99.90
19166;DHT22;9715;48.816;10.520;2022-07-29T14:04:41;21.70;99.90
19166;DHT22;9715;48.816;10.520;2022-07-29T14:07:09;21.60;99.90
19166;DHT22;9715;48.816;10.520;2022-07-29T14:09:42;21.70;99.90
19166;DHT22;9715;48.816;10.520;2022-07-29T14:12:10;21.70;99.90
19166;DHT22;9715;48.816;10.520;2022-07-29T14:14:39;21.70;99.90
19166;DHT22;9715;48.816;10.520;2022-07-29T14:17:09;21.80;99.90
19166;DHT22;9715;48.816;10.520;2022-07-29T14:19:37;21.80;99.90
19166;DHT22;9715;48.816;10.520;2022-07-29T14:22:06;21.70;99.90
19166;DHT22;9715;48.816;10.520;2022-07-29T14:24:35;21.70;99.90
19166;DHT22;9715;48.816;10.520;2022-07-29T14:27:04;21.70;99.90
19166;DHT22;9715;48.816;10.520;2022-07-29T14:29:32;21.70;99.90
19166;DHT22;9715;48.816;10.520;2022-07-29T14:32:06;21.60;99.90
19166;DHT22;9715;48.816;10.520;2022-07-29T14:34:35;21.60;99.90
19166;DHT22;9715;48.816;10.520;2022-07-29T14:37:03;21.60;99.90
19166;DHT22;9715;48.816;10.520;2022-07-29T14:39:33;21.60;99.90
19166;DHT22;9715;48.816;10.520;2022-07-29T14:42:08;21.60;99.90
19166;DHT22;9715;48.816;10.520;2022-07-29T14:44:38;21.50;99.90
19166;DHT22;9715;48.816;10.520;2022-07-29T14:47:09;21.50;99.90
19166;DHT22;9715;48.816;10.520;2022-07-29T14:49:37;21.40;99.90
19166;DHT22;9715;48.816;10.520;2022-07-29T14:52:05;21.40;99.90
19166;DHT22;9715;48.816;10.520;2022-07-29T14:54:33;21.40;99.90
19166;DHT22;9715;48.816;10.520;2022-07-29T14:57:01;21.40;99.90
19166;DHT22;9715;48.816;10.520;2022-07-29T14:59:29;21.40;99.90
19166;DHT22;9715;48.816;10.520;2022-07-29T15:01:57;21.40;99.90
19166;DHT22;9715;48.816;10.520;2022-07-29T15:04:27;21.40;99.90
19166;DHT22;9715;48.816;10.520;2022-07-29T15:06:55;21.40;99.90
19166;DHT22;9715;48.816;10.520;2022-07-29T15:09:23;21.40;99.90
19166;DHT22;9715;48.816;10.520;2022-07-29T15:11:51;21.40;99.90
19166;DHT22;9715;48.816;10.520;2022-07-29T15:14:19;21.40;99.90
19166;DHT22;9715;48.816;10.520;2022-07-29T15:16:47;21.50;99.90
19166;DHT22;9715;48.816;10.520;2022-07-29T15:19:18;21.40;99.90
19166;DHT22;9715;48.816;10.520;2022-07-29T15:21:47;21.40;99.90
19166;DHT22;9715;48.816;10.520;2022-07-29T15:24:16;21.40;99.90
19166;DHT22;9715;48.816;10.520;2022-07-29T15:26:46;21.30;99.90
19166;DHT22;9715;48.816;10.520;2022-07-29T15:29:14;21.30;99.90
19166;DHT22;9715;48.816;10.520;2022-07-29T15:31:43;21.30;99.90
19166;DHT22;9715;48.816;10.520;2022-07-29T15:34:11;21.30;99.90
19166;DHT22;9715;48.816;10.520;2022-07-29T15:36:39;21.20;99.90
19166;DHT22;9715;48.816;10.520;2022-07-29T15:39:21;21.10;99.90
19166;DHT22;9715;48.816;10.520;2022-07-29T15:41:49;21.10;99.90
19166;DHT22;9715;48.816;10.520;2022-07-29T15:44:18;21.10;99.90
19166;DHT22;9715;48.816;10.520;2022-07-29T15:46:47;21.00;99.90
19166;DHT22;9715;48.816;10.520;2022-07-29T15:49:31;21.00;99.90
19166;DHT22;9715;48.816;10.520;2022-07-29T15:52:16;20.90;99.90
19166;DHT22;9715;48.816;10.520;2022-07-29T15:54:54;20.80;99.90
19166;DHT22;9715;48.816;10.520;2022-07-29T15:57:23;20.80;99.90
19166;DHT22;9715;48.816;10.520;2022-07-29T15:59:51;20.80;99.90
19166;DHT22;9715;48.816;10.520;2022-07-29T16:02:19;20.90;99.90